首页
METAR-TAF:

METAR-TAF

机场 :

斯基罗斯岛, 希腊

纬度: 38-58-03N, 经度: 024-29-14E, 海拔: 13米

METAR: 丢失

时间: 03:53 (01:53 UTC)

预报

该预报发布于2小时和53分钟前的23:00 UTC
预报有效从23日的 00点(UTC)到 23日的 09点(UTC)
风速18节,风向
能见度10公里或以上
少量云层高于2000英尺
成为
从 23日的 07点(UTC)到 23日的 09点(UTC)
风速15节,风向东转东北,有时为30节阵风

TAF: LGSY 222300Z 2300/2309 35018KT 9999 FEW020 BECMG 2307/2309 06015G30KT

超过4000个机场的气象观测和天气预报(METAR&TAF报告)。

可查询的气象台以黄色和红色小点在地图上表示。

将鼠标移到小点上方,可查看气象台名称。

然后点击查看天气观测和预报。

如需切换地图:点击带黑十字的绿色按钮放大地图;点击带横线的绿色按钮缩小地图;或者点击绿色箭头查看邻近地区的地图。


METAR-TAF: